sensor_id;sensor_type;location;lat;lon;timestamp;P1;durP1;ratioP1;P2;durP2;ratioP2
40649;SDS011;26342;42.826;23.992;2023-02-03T00:00:51;7.03;;;2.90;;
40649;SDS011;26342;42.826;23.992;2023-02-03T00:03:16;3.70;;;2.65;;
40649;SDS011;26342;42.826;23.992;2023-02-03T00:05:42;2.63;;;1.80;;
40649;SDS011;26342;42.826;23.992;2023-02-03T00:08:08;3.85;;;2.80;;
40649;SDS011;26342;42.826;23.992;2023-02-03T00:10:34;4.22;;;2.65;;
40649;SDS011;26342;42.826;23.992;2023-02-03T00:13:02;1.08;;;0.98;;
40649;SDS011;26342;42.826;23.992;2023-02-03T00:15:28;2.00;;;1.75;;
40649;SDS011;26342;42.826;23.992;2023-02-03T00:17:53;6.45;;;3.85;;
40649;SDS011;26342;42.826;23.992;2023-02-03T00:20:19;3.50;;;2.83;;
40649;SDS011;26342;42.826;23.992;2023-02-03T00:22:44;17.20;;;5.43;;
40649;SDS011;26342;42.826;23.992;2023-02-03T00:25:09;8.13;;;3.55;;
40649;SDS011;26342;42.826;23.992;2023-02-03T00:27:35;7.18;;;5.68;;
40649;SDS011;26342;42.826;23.992;2023-02-03T00:30:00;4.65;;;3.45;;
40649;SDS011;26342;42.826;23.992;2023-02-03T00:32:26;5.50;;;2.17;;
40649;SDS011;26342;42.826;23.992;2023-02-03T00:34:51;8.65;;;4.10;;
40649;SDS011;26342;42.826;23.992;2023-02-03T00:37:16;11.55;;;5.00;;
40649;SDS011;26342;42.826;23.992;2023-02-03T00:39:42;10.43;;;4.30;;
40649;SDS011;26342;42.826;23.992;2023-02-03T00:42:07;5.05;;;4.40;;
40649;SDS011;26342;42.826;23.992;2023-02-03T00:44:33;7.03;;;4.80;;
40649;SDS011;26342;42.826;23.992;2023-02-03T00:46:58;2.33;;;1.52;;
40649;SDS011;26342;42.826;23.992;2023-02-03T00:49:23;7.50;;;2.45;;
40649;SDS011;26342;42.826;23.992;2023-02-03T00:51:49;4.15;;;3.25;;
40649;SDS011;26342;42.826;23.992;2023-02-03T00:54:14;2.33;;;2.13;;
40649;SDS011;26342;42.826;23.992;2023-02-03T00:56:40;4.78;;;2.75;;
40649;SDS011;26342;42.826;23.992;2023-02-03T00:59:06;7.20;;;2.65;;
40649;SDS011;26342;42.826;23.992;2023-02-03T01:01:32;3.20;;;2.90;;
40649;SDS011;26342;42.826;23.992;2023-02-03T01:03:58;4.30;;;3.72;;
40649;SDS011;26342;42.826;23.992;2023-02-03T01:06:24;4.65;;;3.15;;
40649;SDS011;26342;42.826;23.992;2023-02-03T01:08:50;4.10;;;2.30;;
40649;SDS011;26342;42.826;23.992;2023-02-03T01:11:17;3.25;;;2.65;;
40649;SDS011;26342;42.826;23.992;2023-02-03T01:13:44;6.05;;;4.30;;
40649;SDS011;26342;42.826;23.992;2023-02-03T01:16:12;7.75;;;5.72;;
40649;SDS011;26342;42.826;23.992;2023-02-03T01:18:39;3.10;;;2.70;;
40649;SDS011;26342;42.826;23.992;2023-02-03T01:21:06;1.70;;;1.60;;
40649;SDS011;26342;42.826;23.992;2023-02-03T01:23:33;6.70;;;4.03;;
40649;SDS011;26342;42.826;23.992;2023-02-03T01:26:01;6.75;;;2.80;;
40649;SDS011;26342;42.826;23.992;2023-02-03T01:28:30;3.33;;;2.95;;
40649;SDS011;26342;42.826;23.992;2023-02-03T01:30:56;3.30;;;2.92;;
40649;SDS011;26342;42.826;23.992;2023-02-03T01:33:21;2.00;;;1.73;;
40649;SDS011;26342;42.826;23.992;2023-02-03T01:35:47;7.25;;;4.25;;
40649;SDS011;26342;42.826;23.992;2023-02-03T01:38:12;2.30;;;2.10;;
40649;SDS011;26342;42.826;23.992;2023-02-03T01:40:41;5.20;;;2.75;;
40649;SDS011;26342;42.826;23.992;2023-02-03T01:43:09;7.47;;;2.95;;
40649;SDS011;26342;42.826;23.992;2023-02-03T01:45:35;4.47;;;3.88;;
40649;SDS011;26342;42.826;23.992;2023-02-03T01:48:01;0.73;;;0.52;;
40649;SDS011;26342;42.826;23.992;2023-02-03T01:50:31;5.20;;;1.42;;
40649;SDS011;26342;42.826;23.992;2023-02-03T01:53:01;2.47;;;1.88;;
40649;SDS011;26342;42.826;23.992;2023-02-03T01:55:35;1.88;;;1.77;;
40649;SDS011;26342;42.826;23.992;2023-02-03T02:00:42;6.03;;;0.98;;
40649;SDS011;26342;42.826;23.992;2023-02-03T02:03:07;4.03;;;0.60;;
40649;SDS011;26342;42.826;23.992;2023-02-03T02:05:35;1.02;;;0.85;;
40649;SDS011;26342;42.826;23.992;2023-02-03T02:08:05;6.82;;;3.42;;
40649;SDS011;26342;42.826;23.992;2023-02-03T02:10:31;5.75;;;3.55;;
40649;SDS011;26342;42.826;23.992;2023-02-03T02:12:57;4.20;;;3.28;;
40649;SDS011;26342;42.826;23.992;2023-02-03T02:15:30;10.00;;;2.85;;
40649;SDS011;26342;42.826;23.992;2023-02-03T02:18:12;2.78;;;1.55;;
40649;SDS011;26342;42.826;23.992;2023-02-03T02:21:01;1.55;;;1.42;;
40649;SDS011;26342;42.826;23.992;2023-02-03T02:26:27;3.10;;;1.95;;
40649;SDS011;26342;42.826;23.992;2023-02-03T02:51:13;1.85;;;1.75;;
40649;SDS011;26342;42.826;23.992;2023-02-03T02:53:41;1.80;;;1.70;;
40649;SDS011;26342;42.826;23.992;2023-02-03T02:56:12;10.73;;;6.53;;
40649;SDS011;26342;42.826;23.992;2023-02-03T02:58:41;12.18;;;5.15;;
40649;SDS011;26342;42.826;23.992;2023-02-03T03:01:08;10.30;;;6.28;;
40649;SDS011;26342;42.826;23.992;2023-02-03T03:03:34;3.03;;;2.75;;
40649;SDS011;26342;42.826;23.992;2023-02-03T03:06:04;3.25;;;1.45;;
40649;SDS011;26342;42.826;23.992;2023-02-03T03:08:37;2.78;;;0.65;;
40649;SDS011;26342;42.826;23.992;2023-02-03T03:11:11;1.50;;;1.40;;
40649;SDS011;26342;42.826;23.992;2023-02-03T03:13:38;1.75;;;1.23;;
40649;SDS011;26342;42.826;23.992;2023-02-03T03:16:09;2.17;;;1.58;;
40649;SDS011;26342;42.826;23.992;2023-02-03T03:18:43;4.20;;;1.60;;
40649;SDS011;26342;42.826;23.992;2023-02-03T03:21:23;3.85;;;3.15;;
40649;SDS011;26342;42.826;23.992;2023-02-03T03:23:52;2.67;;;1.95;;
40649;SDS011;26342;42.826;23.992;2023-02-03T03:26:29;5.28;;;1.63;;
40649;SDS011;26342;42.826;23.992;2023-02-03T03:29:10;0.20;;;0.20;;
40649;SDS011;26342;42.826;23.992;2023-02-03T03:31:37;2.35;;;0.73;;
40649;SDS011;26342;42.826;23.992;2023-02-03T03:34:04;2.13;;;1.48;;
40649;SDS011;26342;42.826;23.992;2023-02-03T03:36:35;5.45;;;2.10;;
40649;SDS011;26342;42.826;23.992;2023-02-03T03:44:29;3.30;;;2.03;;
40649;SDS011;26342;42.826;23.992;2023-02-03T03:50:25;0.50;;;0.50;;
40649;SDS011;26342;42.826;23.992;2023-02-03T03:52:59;3.50;;;2.42;;
40649;SDS011;26342;42.826;23.992;2023-02-03T03:55:26;3.13;;;2.00;;
40649;SDS011;26342;42.826;23.992;2023-02-03T04:00:21;4.22;;;2.15;;
40649;SDS011;26342;42.826;23.992;2023-02-03T04:02:50;4.28;;;2.60;;
40649;SDS011;26342;42.826;23.992;2023-02-03T04:05:19;3.47;;;2.33;;
40649;SDS011;26342;42.826;23.992;2023-02-03T04:07:46;15.43;;;7.65;;
40649;SDS011;26342;42.826;23.992;2023-02-03T04:12:40;167.70;;;76.55;;
40649;SDS011;26342;42.826;23.992;2023-02-03T04:15:06;88.72;;;51.00;;
40649;SDS011;26342;42.826;23.992;2023-02-03T04:17:31;32.10;;;17.95;;
40649;SDS011;26342;42.826;23.992;2023-02-03T04:19:58;32.50;;;18.00;;
40649;SDS011;26342;42.826;23.992;2023-02-03T04:22:23;9.02;;;6.90;;
40649;SDS011;26342;42.826;23.992;2023-02-03T04:24:49;7.43;;;2.45;;
40649;SDS011;26342;42.826;23.992;2023-02-03T04:27:14;3.70;;;2.72;;
40649;SDS011;26342;42.826;23.992;2023-02-03T04:29:39;2.50;;;1.27;;
40649;SDS011;26342;42.826;23.992;2023-02-03T04:32:05;1.77;;;1.67;;
40649;SDS011;26342;42.826;23.992;2023-02-03T04:34:30;3.45;;;3.15;;
40649;SDS011;26342;42.826;23.992;2023-02-03T04:36:55;4.60;;;3.35;;
40649;SDS011;26342;42.826;23.992;2023-02-03T04:39:21;4.78;;;3.67;;
40649;SDS011;26342;42.826;23.992;2023-02-03T04:41:46;7.18;;;5.75;;
40649;SDS011;26342;42.826;23.992;2023-02-03T04:44:12;6.18;;;5.35;;
40649;SDS011;26342;42.826;23.992;2023-02-03T04:46:37;5.65;;;3.97;;
40649;SDS011;26342;42.826;23.992;2023-02-03T04:49:02;11.75;;;5.05;;
40649;SDS011;26342;42.826;23.992;2023-02-03T04:51:28;8.18;;;7.32;;
40649;SDS011;26342;42.826;23.992;2023-02-03T04:53:53;15.80;;;8.00;;
40649;SDS011;26342;42.826;23.992;2023-02-03T04:56:19;19.52;;;6.93;;
40649;SDS011;26342;42.826;23.992;2023-02-03T04:58:44;11.40;;;5.07;;
40649;SDS011;26342;42.826;23.992;2023-02-03T05:01:09;4.97;;;3.92;;
40649;SDS011;26342;42.826;23.992;2023-02-03T05:03:35;8.77;;;5.20;;
40649;SDS011;26342;42.826;23.992;2023-02-03T05:06:00;7.03;;;5.10;;
40649;SDS011;26342;42.826;23.992;2023-02-03T05:08:27;4.45;;;3.47;;
40649;SDS011;26342;42.826;23.992;2023-02-03T05:10:53;5.28;;;3.15;;
40649;SDS011;26342;42.826;23.992;2023-02-03T05:13:18;3.70;;;3.00;;
40649;SDS011;26342;42.826;23.992;2023-02-03T05:15:43;3.60;;;3.22;;
40649;SDS011;26342;42.826;23.992;2023-02-03T05:18:09;4.22;;;3.63;;
40649;SDS011;26342;42.826;23.992;2023-02-03T05:20:34;4.18;;;3.28;;
40649;SDS011;26342;42.826;23.992;2023-02-03T05:22:59;4.57;;;2.35;;
40649;SDS011;26342;42.826;23.992;2023-02-03T05:25:25;4.95;;;2.63;;
40649;SDS011;26342;42.826;23.992;2023-02-03T05:27:51;11.10;;;5.30;;
40649;SDS011;26342;42.826;23.992;2023-02-03T05:30:16;5.22;;;3.05;;
40649;SDS011;26342;42.826;23.992;2023-02-03T05:32:41;3.83;;;2.75;;
40649;SDS011;26342;42.826;23.992;2023-02-03T05:35:07;13.35;;;6.53;;
40649;SDS011;26342;42.826;23.992;2023-02-03T05:37:32;4.03;;;3.22;;
40649;SDS011;26342;42.826;23.992;2023-02-03T05:39:58;17.23;;;4.15;;
40649;SDS011;26342;42.826;23.992;2023-02-03T05:42:47;4.63;;;3.15;;
40649;SDS011;26342;42.826;23.992;2023-02-03T05:45:13;6.43;;;3.55;;
40649;SDS011;26342;42.826;23.992;2023-02-03T05:47:39;2.55;;;2.35;;
40649;SDS011;26342;42.826;23.992;2023-02-03T05:50:04;4.70;;;1.90;;
40649;SDS011;26342;42.826;23.992;2023-02-03T05:52:30;6.45;;;2.92;;
40649;SDS011;26342;42.826;23.992;2023-02-03T05:54:55;10.35;;;2.08;;
40649;SDS011;26342;42.826;23.992;2023-02-03T05:57:21;3.33;;;2.38;;
40649;SDS011;26342;42.826;23.992;2023-02-03T05:59:46;8.35;;;5.18;;
40649;SDS011;26342;42.826;23.992;2023-02-03T06:02:11;5.53;;;4.82;;
40649;SDS011;26342;42.826;23.992;2023-02-03T06:04:37;17.67;;;4.97;;
40649;SDS011;26342;42.826;23.992;2023-02-03T06:07:02;7.97;;;3.00;;
40649;SDS011;26342;42.826;23.992;2023-02-03T06:09:27;1.27;;;1.17;;
40649;SDS011;26342;42.826;23.992;2023-02-03T06:11:53;2.35;;;2.15;;
40649;SDS011;26342;42.826;23.992;2023-02-03T06:14:18;2.25;;;1.85;;
40649;SDS011;26342;42.826;23.992;2023-02-03T06:16:44;2.63;;;2.05;;
40649;SDS011;26342;42.826;23.992;2023-02-03T06:19:09;10.13;;;5.25;;
40649;SDS011;26342;42.826;23.992;2023-02-03T06:21:34;1.98;;;1.88;;
40649;SDS011;26342;42.826;23.992;2023-02-03T06:24:00;7.28;;;4.32;;
40649;SDS011;26342;42.826;23.992;2023-02-03T06:26:25;10.40;;;6.10;;
40649;SDS011;26342;42.826;23.992;2023-02-03T06:28:50;3.20;;;2.90;;
40649;SDS011;26342;42.826;23.992;2023-02-03T06:31:16;3.40;;;3.10;;
40649;SDS011;26342;42.826;23.992;2023-02-03T06:33:41;2.53;;;2.30;;
40649;SDS011;26342;42.826;23.992;2023-02-03T06:36:07;3.08;;;2.83;;
40649;SDS011;26342;42.826;23.992;2023-02-03T06:38:32;11.60;;;2.63;;
40649;SDS011;26342;42.826;23.992;2023-02-03T06:40:58;2.75;;;1.45;;
40649;SDS011;26342;42.826;23.992;2023-02-03T06:43:23;12.95;;;2.88;;
40649;SDS011;26342;42.826;23.992;2023-02-03T06:45:49;6.22;;;2.22;;
40649;SDS011;26342;42.826;23.992;2023-02-03T06:48:14;7.93;;;3.05;;
40649;SDS011;26342;42.826;23.992;2023-02-03T06:50:39;5.97;;;3.15;;
40649;SDS011;26342;42.826;23.992;2023-02-03T06:53:05;7.57;;;4.38;;
40649;SDS011;26342;42.826;23.992;2023-02-03T06:55:30;4.47;;;4.05;;
40649;SDS011;26342;42.826;23.992;2023-02-03T06:57:56;1.75;;;1.05;;
40649;SDS011;26342;42.826;23.992;2023-02-03T07:00:21;3.60;;;1.80;;
40649;SDS011;26342;42.826;23.992;2023-02-03T07:02:55;0.77;;;0.77;;
40649;SDS011;26342;42.826;23.992;2023-02-03T07:05:22;2.22;;;1.92;;
40649;SDS011;26342;42.826;23.992;2023-02-03T07:07:48;3.92;;;3.00;;
40649;SDS011;26342;42.826;23.992;2023-02-03T07:10:14;4.10;;;3.47;;
40649;SDS011;26342;42.826;23.992;2023-02-03T07:12:40;8.65;;;2.95;;
40649;SDS011;26342;42.826;23.992;2023-02-03T07:15:06;1.98;;;1.17;;
40649;SDS011;26342;42.826;23.992;2023-02-03T07:17:32;2.20;;;1.85;;
40649;SDS011;26342;42.826;23.992;2023-02-03T07:19:57;3.00;;;2.53;;
40649;SDS011;26342;42.826;23.992;2023-02-03T07:22:23;3.47;;;2.53;;
40649;SDS011;26342;42.826;23.992;2023-02-03T07:24:48;2.30;;;1.88;;
40649;SDS011;26342;42.826;23.992;2023-02-03T07:27:14;2.42;;;2.22;;
40649;SDS011;26342;42.826;23.992;2023-02-03T07:29:39;2.03;;;0.95;;
40649;SDS011;26342;42.826;23.992;2023-02-03T07:32:04;1.10;;;1.10;;
40649;SDS011;26342;42.826;23.992;2023-02-03T07:34:30;1.80;;;1.40;;
40649;SDS011;26342;42.826;23.992;2023-02-03T07:36:56;4.63;;;0.95;;
40649;SDS011;26342;42.826;23.992;2023-02-03T07:39:21;1.58;;;1.48;;
40649;SDS011;26342;42.826;23.992;2023-02-03T07:41:46;0.60;;;0.60;;
40649;SDS011;26342;42.826;23.992;2023-02-03T07:44:12;4.72;;;2.28;;
40649;SDS011;26342;42.826;23.992;2023-02-03T07:46:38;6.10;;;4.50;;
40649;SDS011;26342;42.826;23.992;2023-02-03T07:49:08;9.73;;;2.92;;
40649;SDS011;26342;42.826;23.992;2023-02-03T07:51:37;4.05;;;2.95;;
40649;SDS011;26342;42.826;23.992;2023-02-03T07:54:02;6.10;;;3.10;;
40649;SDS011;26342;42.826;23.992;2023-02-03T07:56:28;6.85;;;3.42;;
40649;SDS011;26342;42.826;23.992;2023-02-03T07:58:54;5.20;;;4.60;;
40649;SDS011;26342;42.826;23.992;2023-02-03T08:01:20;3.13;;;2.58;;
40649;SDS011;26342;42.826;23.992;2023-02-03T08:03:45;2.03;;;1.55;;
40649;SDS011;26342;42.826;23.992;2023-02-03T08:06:11;3.55;;;2.03;;
40649;SDS011;26342;42.826;23.992;2023-02-03T08:08:36;1.60;;;1.38;;
40649;SDS011;26342;42.826;23.992;2023-02-03T08:11:02;4.55;;;3.65;;
40649;SDS011;26342;42.826;23.992;2023-02-03T08:13:27;0.98;;;0.95;;
40649;SDS011;26342;42.826;23.992;2023-02-03T08:15:52;3.83;;;1.52;;
40649;SDS011;26342;42.826;23.992;2023-02-03T08:18:18;1.65;;;0.55;;
40649;SDS011;26342;42.826;23.992;2023-02-03T08:20:43;0.30;;;0.30;;
40649;SDS011;26342;42.826;23.992;2023-02-03T08:23:11;1.25;;;0.80;;
40649;SDS011;26342;42.826;23.992;2023-02-03T08:25:37;0.88;;;0.88;;
40649;SDS011;26342;42.826;23.992;2023-02-03T08:28:02;8.40;;;2.90;;
40649;SDS011;26342;42.826;23.992;2023-02-03T08:30:28;0.43;;;0.43;;
40649;SDS011;26342;42.826;23.992;2023-02-03T08:32:53;1.27;;;0.88;;
40649;SDS011;26342;42.826;23.992;2023-02-03T08:35:18;1.45;;;0.85;;
40649;SDS011;26342;42.826;23.992;2023-02-03T08:37:44;6.82;;;1.92;;
40649;SDS011;26342;42.826;23.992;2023-02-03T08:40:09;1.02;;;0.98;;
40649;SDS011;26342;42.826;23.992;2023-02-03T08:42:35;2.75;;;1.90;;
40649;SDS011;26342;42.826;23.992;2023-02-03T08:45:01;0.65;;;0.65;;
40649;SDS011;26342;42.826;23.992;2023-02-03T08:47:27;2.03;;;1.52;;
40649;SDS011;26342;42.826;23.992;2023-02-03T08:49:52;0.75;;;0.75;;
40649;SDS011;26342;42.826;23.992;2023-02-03T08:52:18;1.25;;;1.15;;
40649;SDS011;26342;42.826;23.992;2023-02-03T08:54:43;0.47;;;0.47;;
40649;SDS011;26342;42.826;23.992;2023-02-03T08:57:09;4.95;;;1.95;;
40649;SDS011;26342;42.826;23.992;2023-02-03T08:59:36;0.55;;;0.55;;
40649;SDS011;26342;42.826;23.992;2023-02-03T09:02:04;3.22;;;1.85;;
40649;SDS011;26342;42.826;23.992;2023-02-03T09:04:31;0.80;;;0.77;;
40649;SDS011;26342;42.826;23.992;2023-02-03T09:06:58;1.13;;;1.13;;
40649;SDS011;26342;42.826;23.992;2023-02-03T09:09:24;2.75;;;2.40;;
40649;SDS011;26342;42.826;23.992;2023-02-03T09:11:51;1.55;;;1.38;;
40649;SDS011;26342;42.826;23.992;2023-02-03T09:14:19;0.75;;;0.47;;
40649;SDS011;26342;42.826;23.992;2023-02-03T09:16:44;0.32;;;0.32;;
40649;SDS011;26342;42.826;23.992;2023-02-03T09:19:10;0.68;;;0.68;;
40649;SDS011;26342;42.826;23.992;2023-02-03T09:21:37;1.25;;;0.65;;
40649;SDS011;26342;42.826;23.992;2023-02-03T09:24:03;0.30;;;0.30;;
40649;SDS011;26342;42.826;23.992;2023-02-03T09:26:28;0.98;;;0.43;;
40649;SDS011;26342;42.826;23.992;2023-02-03T09:28:54;1.30;;;1.20;;
40649;SDS011;26342;42.826;23.992;2023-02-03T09:31:19;1.55;;;1.17;;
40649;SDS011;26342;42.826;23.992;2023-02-03T09:33:45;0.90;;;0.90;;
40649;SDS011;26342;42.826;23.992;2023-02-03T09:36:11;0.75;;;0.68;;
40649;SDS011;26342;42.826;23.992;2023-02-03T09:38:37;3.15;;;1.85;;
40649;SDS011;26342;42.826;23.992;2023-02-03T09:46:26;0.30;;;0.30;;
40649;SDS011;26342;42.826;23.992;2023-02-03T09:48:58;5.18;;;4.63;;
40649;SDS011;26342;42.826;23.992;2023-02-03T09:51:41;1.80;;;1.27;;
40649;SDS011;26342;42.826;23.992;2023-02-03T09:56:54;0.47;;;0.47;;
40649;SDS011;26342;42.826;23.992;2023-02-03T09:59:24;0.77;;;0.77;;
40649;SDS011;26342;42.826;23.992;2023-02-03T10:02:01;1.92;;;0.85;;
40649;SDS011;26342;42.826;23.992;2023-02-03T10:07:29;1.02;;;1.00;;
40649;SDS011;26342;42.826;23.992;2023-02-03T10:10:13;2.58;;;1.08;;
40649;SDS011;26342;42.826;23.992;2023-02-03T10:18:13;0.30;;;0.30;;
40649;SDS011;26342;42.826;23.992;2023-02-03T10:20:45;0.30;;;0.30;;
40649;SDS011;26342;42.826;23.992;2023-02-03T10:23:26;2.42;;;0.70;;
40649;SDS011;26342;42.826;23.992;2023-02-03T10:25:55;1.02;;;0.95;;
40649;SDS011;26342;42.826;23.992;2023-02-03T10:28:26;0.40;;;0.40;;
40649;SDS011;26342;42.826;23.992;2023-02-03T10:30:55;0.25;;;0.25;;
40649;SDS011;26342;42.826;23.992;2023-02-03T10:33:26;0.30;;;0.30;;
40649;SDS011;26342;42.826;23.992;2023-02-03T10:36:00;1.10;;;1.02;;
40649;SDS011;26342;42.826;23.992;2023-02-03T10:41:15;3.25;;;1.58;;
40649;SDS011;26342;42.826;23.992;2023-02-03T10:43:43;2.25;;;1.02;;
40649;SDS011;26342;42.826;23.992;2023-02-03T10:46:13;0.90;;;0.90;;
40649;SDS011;26342;42.826;23.992;2023-02-03T10:48:43;7.22;;;1.55;;
40649;SDS011;26342;42.826;23.992;2023-02-03T10:51:24;5.13;;;3.15;;
40649;SDS011;26342;42.826;23.992;2023-02-03T10:53:54;4.15;;;1.88;;
40649;SDS011;26342;42.826;23.992;2023-02-03T10:56:21;1.05;;;0.98;;
40649;SDS011;26342;42.826;23.992;2023-02-03T10:58:54;4.32;;;2.92;;
40649;SDS011;26342;42.826;23.992;2023-02-03T11:01:23;2.95;;;1.65;;
40649;SDS011;26342;42.826;23.992;2023-02-03T11:03:59;1.40;;;1.30;;
40649;SDS011;26342;42.826;23.992;2023-02-03T11:06:27;4.07;;;1.83;;
40649;SDS011;26342;42.826;23.992;2023-02-03T11:08:53;0.60;;;0.60;;
40649;SDS011;26342;42.826;23.992;2023-02-03T11:13:44;4.55;;;2.17;;
40649;SDS011;26342;42.826;23.992;2023-02-03T11:16:13;1.85;;;1.02;;
40649;SDS011;26342;42.826;23.992;2023-02-03T11:21:48;1.33;;;1.08;;
40649;SDS011;26342;42.826;23.992;2023-02-03T11:24:26;3.13;;;1.55;;
40649;SDS011;26342;42.826;23.992;2023-02-03T11:29:28;2.53;;;1.88;;
40649;SDS011;26342;42.826;23.992;2023-02-03T11:31:56;1.23;;;0.57;;
40649;SDS011;26342;42.826;23.992;2023-02-03T11:34:26;7.78;;;2.17;;
40649;SDS011;26342;42.826;23.992;2023-02-03T11:36:55;1.08;;;0.98;;
40649;SDS011;26342;42.826;23.992;2023-02-03T11:41:48;3.08;;;2.85;;
40649;SDS011;26342;42.826;23.992;2023-02-03T11:44:16;2.05;;;1.48;;
40649;SDS011;26342;42.826;23.992;2023-02-03T11:53:06;1.83;;;1.30;;
40649;SDS011;26342;42.826;23.992;2023-02-03T12:00:53;1.50;;;1.40;;
40649;SDS011;26342;42.826;23.992;2023-02-03T12:06:18;0.25;;;0.25;;
40649;SDS011;26342;42.826;23.992;2023-02-03T12:11:48;2.42;;;2.00;;
40649;SDS011;26342;42.826;23.992;2023-02-03T12:22:51;0.50;;;0.50;;
40649;SDS011;26342;42.826;23.992;2023-02-03T12:30:34;0.68;;;0.68;;
40649;SDS011;26342;42.826;23.992;2023-02-03T12:33:24;4.35;;;1.55;;
40649;SDS011;26342;42.826;23.992;2023-02-03T12:35:56;1.00;;;1.00;;
40649;SDS011;26342;42.826;23.992;2023-02-03T12:38:41;0.57;;;0.57;;
40649;SDS011;26342;42.826;23.992;2023-02-03T12:41:14;1.13;;;0.85;;
40649;SDS011;26342;42.826;23.992;2023-02-03T12:43:45;0.57;;;0.52;;
40649;SDS011;26342;42.826;23.992;2023-02-03T12:46:21;1.00;;;0.98;;
40649;SDS011;26342;42.826;23.992;2023-02-03T12:49:15;2.72;;;1.55;;
40649;SDS011;26342;42.826;23.992;2023-02-03T12:51:52;2.30;;;2.10;;
40649;SDS011;26342;42.826;23.992;2023-02-03T12:54:47;1.95;;;1.67;;
40649;SDS011;26342;42.826;23.992;2023-02-03T13:08:22;1.10;;;0.73;;
40649;SDS011;26342;42.826;23.992;2023-02-03T13:13:52;1.58;;;1.48;;
40649;SDS011;26342;42.826;23.992;2023-02-03T13:16:22;1.73;;;1.63;;
40649;SDS011;26342;42.826;23.992;2023-02-03T13:18:59;2.83;;;1.77;;
40649;SDS011;26342;42.826;23.992;2023-02-03T13:21:29;0.55;;;0.50;;
40649;SDS011;26342;42.826;23.992;2023-02-03T13:23:55;0.40;;;0.40;;
40649;SDS011;26342;42.826;23.992;2023-02-03T13:39:52;3.42;;;0.98;;
40649;SDS011;26342;42.826;23.992;2023-02-03T13:42:43;1.35;;;0.95;;
40649;SDS011;26342;42.826;23.992;2023-02-03T13:51:07;4.10;;;1.45;;
40649;SDS011;26342;42.826;23.992;2023-02-03T13:53:41;4.93;;;1.80;;
40649;SDS011;26342;42.826;23.992;2023-02-03T13:58:45;4.75;;;4.35;;
40649;SDS011;26342;42.826;23.992;2023-02-03T14:01:37;7.88;;;4.38;;
40649;SDS011;26342;42.826;23.992;2023-02-03T14:04:08;9.35;;;3.80;;
40649;SDS011;26342;42.826;23.992;2023-02-03T14:06:54;5.97;;;5.25;;
40649;SDS011;26342;42.826;23.992;2023-02-03T14:11:50;4.82;;;3.35;;
40649;SDS011;26342;42.826;23.992;2023-02-03T14:17:01;1.90;;;1.80;;
40649;SDS011;26342;42.826;23.992;2023-02-03T14:21:55;13.43;;;5.55;;
40649;SDS011;26342;42.826;23.992;2023-02-03T14:24:22;3.38;;;1.85;;
40649;SDS011;26342;42.826;23.992;2023-02-03T14:26:55;1.95;;;1.77;;
40649;SDS011;26342;42.826;23.992;2023-02-03T14:29:26;0.30;;;0.30;;
40649;SDS011;26342;42.826;23.992;2023-02-03T14:31:58;1.08;;;0.75;;
40649;SDS011;26342;42.826;23.992;2023-02-03T14:34:41;0.32;;;0.32;;
40649;SDS011;26342;42.826;23.992;2023-02-03T15:02:27;6.80;;;2.65;;
40649;SDS011;26342;42.826;23.992;2023-02-03T15:12:52;0.43;;;0.43;;
40649;SDS011;26342;42.826;23.992;2023-02-03T15:17:48;2.22;;;1.05;;
40649;SDS011;26342;42.826;23.992;2023-02-03T15:22:52;0.20;;;0.20;;
40649;SDS011;26342;42.826;23.992;2023-02-03T15:25:18;1.33;;;0.82;;
40649;SDS011;26342;42.826;23.992;2023-02-03T15:27:49;2.17;;;1.98;;
40649;SDS011;26342;42.826;23.992;2023-02-03T15:30:16;1.15;;;0.80;;
40649;SDS011;26342;42.826;23.992;2023-02-03T15:33:13;1.75;;;0.85;;
40649;SDS011;26342;42.826;23.992;2023-02-03T15:35:39;1.38;;;0.75;;
40649;SDS011;26342;42.826;23.992;2023-02-03T15:38:28;2.30;;;0.90;;
40649;SDS011;26342;42.826;23.992;2023-02-03T15:40:59;1.95;;;1.38;;
40649;SDS011;26342;42.826;23.992;2023-02-03T15:43:31;2.63;;;1.23;;
40649;SDS011;26342;42.826;23.992;2023-02-03T15:49:04;3.13;;;2.22;;
40649;SDS011;26342;42.826;23.992;2023-02-03T15:51:34;1.98;;;1.85;;
40649;SDS011;26342;42.826;23.992;2023-02-03T15:54:11;0.60;;;0.60;;
40649;SDS011;26342;42.826;23.992;2023-02-03T15:57:01;0.35;;;0.30;;
40649;SDS011;26342;42.826;23.992;2023-02-03T15:59:35;0.85;;;0.68;;
40649;SDS011;26342;42.826;23.992;2023-02-03T16:02:05;1.30;;;0.55;;
40649;SDS011;26342;42.826;23.992;2023-02-03T16:04:38;1.20;;;1.13;;
40649;SDS011;26342;42.826;23.992;2023-02-03T16:07:04;0.10;;;0.10;;
40649;SDS011;26342;42.826;23.992;2023-02-03T16:14:49;1.33;;;0.88;;
40649;SDS011;26342;42.826;23.992;2023-02-03T16:19:46;0.38;;;0.38;;
40649;SDS011;26342;42.826;23.992;2023-02-03T16:22:27;0.20;;;0.20;;
40649;SDS011;26342;42.826;23.992;2023-02-03T16:24:56;0.43;;;0.32;;
40649;SDS011;26342;42.826;23.992;2023-02-03T16:29:50;2.30;;;1.55;;
40649;SDS011;26342;42.826;23.992;2023-02-03T16:33:01;2.90;;;1.40;;
40649;SDS011;26342;42.826;23.992;2023-02-03T16:35:52;0.70;;;0.70;;
40649;SDS011;26342;42.826;23.992;2023-02-03T16:38:37;0.85;;;0.85;;
40649;SDS011;26342;42.826;23.992;2023-02-03T16:41:21;1.38;;;1.27;;
40649;SDS011;26342;42.826;23.992;2023-02-03T16:44:04;1.33;;;1.23;;
40649;SDS011;26342;42.826;23.992;2023-02-03T16:46:48;6.32;;;2.80;;
40649;SDS011;26342;42.826;23.992;2023-02-03T16:49:32;5.38;;;1.42;;
40649;SDS011;26342;42.826;23.992;2023-02-03T16:52:16;0.10;;;0.10;;
40649;SDS011;26342;42.826;23.992;2023-02-03T16:54:42;1.85;;;1.58;;
40649;SDS011;26342;42.826;23.992;2023-02-03T16:57:07;4.00;;;3.67;;
40649;SDS011;26342;42.826;23.992;2023-02-03T16:59:33;13.98;;;8.05;;
40649;SDS011;26342;42.826;23.992;2023-02-03T17:01:58;1.42;;;1.20;;
40649;SDS011;26342;42.826;23.992;2023-02-03T17:04:24;1.08;;;0.98;;
40649;SDS011;26342;42.826;23.992;2023-02-03T17:06:49;3.95;;;2.10;;
40649;SDS011;26342;42.826;23.992;2023-02-03T17:09:15;5.68;;;3.38;;
40649;SDS011;26342;42.826;23.992;2023-02-03T17:11:46;2.47;;;1.85;;
40649;SDS011;26342;42.826;23.992;2023-02-03T17:14:12;5.68;;;3.88;;
40649;SDS011;26342;42.826;23.992;2023-02-03T17:16:37;11.75;;;5.40;;
40649;SDS011;26342;42.826;23.992;2023-02-03T17:19:02;7.18;;;5.13;;
40649;SDS011;26342;42.826;23.992;2023-02-03T17:21:28;6.43;;;4.20;;
40649;SDS011;26342;42.826;23.992;2023-02-03T17:23:54;3.22;;;2.20;;
40649;SDS011;26342;42.826;23.992;2023-02-03T17:26:19;11.85;;;4.45;;
40649;SDS011;26342;42.826;23.992;2023-02-03T17:28:45;1.63;;;1.52;;
40649;SDS011;26342;42.826;23.992;2023-02-03T17:31:12;2.83;;;2.53;;
40649;SDS011;26342;42.826;23.992;2023-02-03T17:33:39;6.00;;;3.50;;
40649;SDS011;26342;42.826;23.992;2023-02-03T17:38:42;4.07;;;2.40;;
40649;SDS011;26342;42.826;23.992;2023-02-03T17:43:38;1.17;;;0.75;;
40649;SDS011;26342;42.826;23.992;2023-02-03T17:46:04;0.90;;;0.80;;
40649;SDS011;26342;42.826;23.992;2023-02-03T17:48:30;2.45;;;1.40;;
40649;SDS011;26342;42.826;23.992;2023-02-03T17:51:03;4.35;;;2.83;;
40649;SDS011;26342;42.826;23.992;2023-02-03T17:53:31;5.45;;;1.88;;
40649;SDS011;26342;42.826;23.992;2023-02-03T17:55:57;3.97;;;2.95;;
40649;SDS011;26342;42.826;23.992;2023-02-03T17:58:22;2.38;;;2.03;;
40649;SDS011;26342;42.826;23.992;2023-02-03T18:00:48;1.65;;;1.55;;
40649;SDS011;26342;42.826;23.992;2023-02-03T18:03:13;2.92;;;1.13;;
40649;SDS011;26342;42.826;23.992;2023-02-03T18:05:39;1.55;;;1.33;;